Tahawus, New York
Current Conditions -  °F | °C
As of 10:51 AM on Friday 24 Oct 2014 (Local Time) from KSLK Reporting Station
Overcast Overcast  
Wind Chill:   Ceiling: 600
Heat Index:   Visibility: 10mi
Dew Point:   Wind: 6mph
Humidity: 93%   Direction: 360°N
Pressure: 29.86"   Gusts: NA
Location:  44.0508°N, 74.0396°W
Report Text: KSLK 241451Z AUTO 36005KT 10SM BKN006 OVC010 05/04 A2986 RMK AO2 SLP122 T00500039 50001
Loading
Personal Weather Stations






























Interactive Weather Map
Tropical Storm Tracking
New forecast layout! Learn more

10-Day Weather Forecast

Advertisements
Track Severe Weather on mobile